createdAt,value
2019-04-14T00:01:36.966Z,14.90
2019-04-14T00:04:25.304Z,18.37
2019-04-14T00:06:54.812Z,16.77
2019-04-14T00:09:25.179Z,18.20
2019-04-14T00:11:54.817Z,14.63
2019-04-14T00:14:25.048Z,16.00
2019-04-14T00:16:55.258Z,17.13
2019-04-14T00:19:24.420Z,15.90
2019-04-14T00:21:54.427Z,16.93
2019-04-14T00:24:24.836Z,16.83
2019-04-14T00:26:55.218Z,18.07
2019-04-14T00:29:24.126Z,17.43
2019-04-14T00:31:54.161Z,15.17
2019-04-14T00:34:33.047Z,16.70
2019-04-14T00:37:14.135Z,20.37
2019-04-14T00:39:46.638Z,15.83
2019-04-14T00:42:25.665Z,17.80
2019-04-14T00:45:02.723Z,17.13
2019-04-14T00:47:43.262Z,16.33
2019-04-14T00:50:06.457Z,16.63
2019-04-14T00:52:35.299Z,17.63
2019-04-14T00:55:05.353Z,14.50
2019-04-14T00:57:34.166Z,15.77
2019-04-14T01:00:03.875Z,16.43
2019-04-14T01:02:33.985Z,16.93
2019-04-14T01:05:02.867Z,18.17
2019-04-14T01:07:32.636Z,15.70
2019-04-14T01:10:01.813Z,15.20
2019-04-14T01:12:32.007Z,13.70
2019-04-14T01:15:00.994Z,15.00
2019-04-14T01:17:30.817Z,16.20
2019-04-14T01:20:01.336Z,18.10
2019-04-14T01:22:31.371Z,16.27
2019-04-14T01:25:00.347Z,16.50
2019-04-14T01:27:29.914Z,21.13
2019-04-14T01:29:58.885Z,15.97
2019-04-14T01:32:28.400Z,15.57
2019-04-14T01:34:57.167Z,15.70
2019-04-14T01:37:26.822Z,17.07
2019-04-14T01:39:56.680Z,17.83
2019-04-14T01:42:26.759Z,13.70
2019-04-14T01:44:56.982Z,18.27
2019-04-14T01:47:27.023Z,16.53
2019-04-14T01:49:57.298Z,15.60
2019-04-14T01:52:36.262Z,15.93
2019-04-14T01:55:20.134Z,15.13
2019-04-14T01:58:08.058Z,14.33
2019-04-14T02:00:42.559Z,15.47
2019-04-14T02:03:12.660Z,17.33
2019-04-14T02:05:43.137Z,15.07
2019-04-14T02:08:13.092Z,14.53
2019-04-14T02:10:43.498Z,14.00
2019-04-14T02:13:13.529Z,14.00
2019-04-14T02:15:42.467Z,15.03
2019-04-14T02:18:12.143Z,14.83
2019-04-14T02:20:40.954Z,13.27
2019-04-14T02:23:10.346Z,16.07
2019-04-14T02:25:40.423Z,17.53
2019-04-14T02:28:09.587Z,15.93
2019-04-14T02:30:48.379Z,14.30
2019-04-14T02:33:38.969Z,15.80
2019-04-14T02:36:14.680Z,14.10
2019-04-14T02:38:41.197Z,18.17
2019-04-14T02:41:15.634Z,15.27
2019-04-14T02:43:45.349Z,15.40
2019-04-14T02:46:03.945Z,14.43
2019-04-14T02:48:44.551Z,14.73
2019-04-14T02:51:14.407Z,15.37
2019-04-14T02:53:42.108Z,13.67
2019-04-14T02:56:15.964Z,15.63
2019-04-14T03:01:14.649Z,14.93
2019-04-14T03:03:43.635Z,20.20
2019-04-14T03:06:14.568Z,17.63
2019-04-14T03:13:45.577Z,19.60
2019-04-14T03:19:13.938Z,16.63
2019-04-14T03:22:18.370Z,14.30
2019-04-14T03:24:37.510Z,13.63
2019-04-14T03:27:39.969Z,16.43
2019-04-14T03:30:39.287Z,15.83
2019-04-14T03:33:04.965Z,17.83
2019-04-14T03:38:03.168Z,18.30
2019-04-14T03:40:23.706Z,16.17
2019-04-14T03:42:59.654Z,18.23
2019-04-14T03:48:15.156Z,14.07
2019-04-14T03:50:21.114Z,17.10
2019-04-14T03:53:03.303Z,15.07
2019-04-14T03:55:11.349Z,18.23
2019-04-14T03:57:27.880Z,17.17
2019-04-14T03:59:56.381Z,14.87
2019-04-14T04:02:25.305Z,14.67
2019-04-14T04:04:54.086Z,15.03
2019-04-14T04:07:23.575Z,15.97
2019-04-14T04:09:58.267Z,16.10
2019-04-14T04:12:27.246Z,16.10
2019-04-14T04:14:57.423Z,16.53
2019-04-14T04:17:45.293Z,15.87
2019-04-14T04:20:32.845Z,14.60
2019-04-14T04:23:11.720Z,14.90
2019-04-14T04:25:48.999Z,16.70
2019-04-14T04:28:34.233Z,13.73
2019-04-14T04:31:11.066Z,16.30
2019-04-14T04:33:56.782Z,15.23
2019-04-14T04:36:31.281Z,16.70
2019-04-14T04:39:10.345Z,14.93
2019-04-14T04:41:39.159Z,13.93
2019-04-14T04:44:09.414Z,13.57
2019-04-14T04:46:39.448Z,15.07
2019-04-14T04:49:15.161Z,13.57
2019-04-14T04:51:40.027Z,15.47
2019-04-14T04:54:08.822Z,14.83
2019-04-14T04:56:38.349Z,16.10
2019-04-14T04:59:07.662Z,15.93
2019-04-14T05:01:36.719Z,14.80
2019-04-14T05:04:06.775Z,14.17
2019-04-14T05:07:10.654Z,12.83
2019-04-14T05:10:17.453Z,13.27
2019-04-14T05:13:05.770Z,14.50
2019-04-14T05:15:44.588Z,13.83
2019-04-14T05:18:27.308Z,15.03
2019-04-14T05:20:57.427Z,15.93
2019-04-14T05:23:26.351Z,17.23
2019-04-14T05:25:56.127Z,15.57
2019-04-14T05:28:25.161Z,16.17
2019-04-14T05:30:54.697Z,15.27
2019-04-14T05:33:24.943Z,13.57
2019-04-14T05:35:55.179Z,16.87
2019-04-14T05:38:24.375Z,17.40
2019-04-14T05:40:54.001Z,18.07
2019-04-14T05:43:30.210Z,18.73
2019-04-14T05:45:54.405Z,17.23
2019-04-14T05:48:23.375Z,17.07
2019-04-14T05:50:53.323Z,18.83
2019-04-14T05:53:22.296Z,13.73
2019-04-14T05:55:51.063Z,17.00
2019-04-14T05:58:20.747Z,19.43
2019-04-14T06:00:51.675Z,14.77
2019-04-14T06:03:21.319Z,17.13
2019-04-14T06:05:50.359Z,13.10
2019-04-14T06:08:19.462Z,21.70
2019-04-14T06:10:48.247Z,18.23
2019-04-14T06:13:17.026Z,17.90
2019-04-14T06:15:45.789Z,18.37
2019-04-14T06:18:14.641Z,17.03
2019-04-14T06:20:43.808Z,18.73
2019-04-14T06:23:12.563Z,15.20
2019-04-14T06:25:41.341Z,15.67
2019-04-14T06:28:10.179Z,16.27
2019-04-14T06:31:01.199Z,17.77
2019-04-14T06:33:38.516Z,17.00
2019-04-14T06:36:25.103Z,17.57
2019-04-14T06:38:59.990Z,18.43
2019-04-14T06:41:28.773Z,18.53
2019-04-14T06:43:57.555Z,19.70
2019-04-14T06:46:26.675Z,24.27
2019-04-14T06:48:55.446Z,19.50
2019-04-14T06:51:24.214Z,19.03
2019-04-14T06:53:53.012Z,18.77
2019-04-14T06:56:22.504Z,19.47
2019-04-14T06:58:51.590Z,18.27
2019-04-14T07:01:20.390Z,19.77
2019-04-14T07:03:49.170Z,22.00
2019-04-14T07:06:17.939Z,22.30
2019-04-14T07:08:46.997Z,19.07
2019-04-14T07:11:16.107Z,19.37
2019-04-14T07:13:48.006Z,22.40
2019-04-14T07:16:15.668Z,23.63
2019-04-14T07:18:44.435Z,18.27
2019-04-14T07:21:13.207Z,22.77
2019-04-14T07:23:42.236Z,19.00
2019-04-14T07:26:11.195Z,26.20
2019-04-14T07:28:39.971Z,19.83
2019-04-14T07:31:26.963Z,19.77
2019-04-14T07:34:21.874Z,19.03
2019-04-14T07:37:13.607Z,21.43
2019-04-14T07:39:51.714Z,24.30
2019-04-14T07:42:32.789Z,19.03
2019-04-14T07:45:36.187Z,27.77
2019-04-14T07:48:16.346Z,21.27
2019-04-14T07:51:00.390Z,22.93
2019-04-14T07:53:54.780Z,23.97
2019-04-14T07:56:42.923Z,21.43
2019-04-14T07:59:20.007Z,21.77
2019-04-14T08:02:02.079Z,23.13
2019-04-14T08:04:33.647Z,21.17
2019-04-14T08:07:02.446Z,18.57
2019-04-14T08:09:31.214Z,22.37
2019-04-14T08:11:59.983Z,19.50
2019-04-14T08:14:29.320Z,22.47
2019-04-14T08:16:58.412Z,16.17
2019-04-14T08:19:27.179Z,21.53
2019-04-14T08:21:56.300Z,19.27
2019-04-14T08:24:25.056Z,22.53
2019-04-14T08:26:54.490Z,21.00
2019-04-14T08:29:23.597Z,22.50
2019-04-14T08:31:52.359Z,21.83
2019-04-14T08:34:21.128Z,24.57
2019-04-14T08:36:49.992Z,22.70
2019-04-14T08:39:18.746Z,21.60
2019-04-14T08:42:07.293Z,23.57
2019-04-14T08:44:42.585Z,21.57
2019-04-14T08:47:35.687Z,23.53
2019-04-14T08:50:10.823Z,27.90
2019-04-14T08:52:47.401Z,25.77
2019-04-14T08:55:23.137Z,24.20
2019-04-14T08:57:56.330Z,25.53
2019-04-14T09:00:32.181Z,24.03
2019-04-14T09:03:19.104Z,19.43
2019-04-14T09:05:59.560Z,28.10
2019-04-14T09:08:59.955Z,23.90
2019-04-14T09:11:36.571Z,24.70
2019-04-14T09:14:05.519Z,25.70
2019-04-14T09:16:34.579Z,26.23
2019-04-14T09:19:07.800Z,26.17
2019-04-14T09:21:33.846Z,23.23
2019-04-14T09:24:03.272Z,23.23
2019-04-14T09:26:32.331Z,26.37
2019-04-14T09:29:01.359Z,24.03
2019-04-14T09:31:30.147Z,26.60
2019-04-14T09:33:58.908Z,24.87
2019-04-14T09:36:28.339Z,28.20
2019-04-14T09:38:57.422Z,27.83
2019-04-14T09:41:26.835Z,26.23
2019-04-14T09:43:55.600Z,28.03
2019-04-14T09:46:25.158Z,28.93
2019-04-14T09:48:54.536Z,30.27
2019-04-14T09:51:23.944Z,28.93
2019-04-14T09:53:53.564Z,31.47
2019-04-14T09:56:23.251Z,27.53
2019-04-14T09:58:52.371Z,25.80
2019-04-14T10:01:21.490Z,29.87
2019-04-14T10:03:50.740Z,26.23
2019-04-14T10:06:19.795Z,28.97
2019-04-14T10:08:48.654Z,30.13
2019-04-14T10:11:17.792Z,25.80
2019-04-14T10:13:47.132Z,22.77
2019-04-14T10:16:15.903Z,30.93
2019-04-14T10:18:44.675Z,35.10
2019-04-14T10:21:17.658Z,27.20
2019-04-14T10:23:43.939Z,31.17
2019-04-14T10:26:13.035Z,26.97
2019-04-14T10:28:42.109Z,26.53
2019-04-14T10:31:11.392Z,30.20
2019-04-14T10:33:40.784Z,27.37
2019-04-14T10:36:10.388Z,25.20
2019-04-14T10:38:39.511Z,25.80
2019-04-14T10:41:08.288Z,27.27
2019-04-14T10:43:37.067Z,24.50
2019-04-14T10:46:05.895Z,26.33
2019-04-14T10:48:34.683Z,29.00
2019-04-14T10:51:04.846Z,26.27
2019-04-14T10:53:33.912Z,25.70
2019-04-14T10:56:02.804Z,23.63
2019-04-14T10:58:32.153Z,26.73
2019-04-14T11:01:01.230Z,24.37
2019-04-14T11:03:30.075Z,23.33
2019-04-14T11:06:12.595Z,26.50
2019-04-14T11:08:41.367Z,23.33
2019-04-14T11:11:10.371Z,24.27
2019-04-14T11:13:40.083Z,23.73
2019-04-14T11:16:09.043Z,22.40
2019-04-14T11:18:38.070Z,28.53
2019-04-14T11:21:06.831Z,23.17
2019-04-14T11:23:36.409Z,25.33
2019-04-14T11:26:05.529Z,25.20
2019-04-14T11:28:35.009Z,22.30
2019-04-14T11:31:04.227Z,24.30
2019-04-14T11:33:36.461Z,23.43
2019-04-14T11:36:24.721Z,24.83
2019-04-14T11:39:18.696Z,24.47
2019-04-14T11:41:48.375Z,23.57
2019-04-14T11:44:17.546Z,23.30
2019-04-14T11:46:46.455Z,23.13
2019-04-14T11:49:15.651Z,26.57
2019-04-14T11:51:54.685Z,20.43
2019-04-14T11:54:15.348Z,20.50
2019-04-14T11:56:44.431Z,19.33
2019-04-14T11:59:13.696Z,19.93
2019-04-14T12:01:58.805Z,17.90
2019-04-14T12:04:41.016Z,15.57
2019-04-14T12:07:41.419Z,17.63
2019-04-14T12:10:18.340Z,15.73
2019-04-14T12:12:47.175Z,17.60
2019-04-14T12:15:16.659Z,15.40
2019-04-14T12:17:45.698Z,16.03
2019-04-14T12:20:15.089Z,13.67
2019-04-14T12:22:44.175Z,12.83
2019-04-14T12:25:13.018Z,16.67
2019-04-14T12:27:42.084Z,16.30
2019-04-14T12:30:13.388Z,13.77
2019-04-14T12:32:43.513Z,16.60
2019-04-14T12:35:13.124Z,13.03
2019-04-14T12:37:42.183Z,14.43
2019-04-14T12:40:12.052Z,14.30
2019-04-14T12:43:09.248Z,16.80
2019-04-14T12:45:51.478Z,11.33
2019-04-14T12:48:26.958Z,10.37
2019-04-14T12:50:59.932Z,14.50
2019-04-14T12:53:29.060Z,13.10
2019-04-14T12:55:58.440Z,10.73
2019-04-14T12:58:38.946Z,14.40
2019-04-14T13:01:10.414Z,11.73
2019-04-14T13:03:41.976Z,10.13
2019-04-14T13:06:11.367Z,12.40
2019-04-14T13:08:40.171Z,11.73
2019-04-14T13:11:09.801Z,12.83
2019-04-14T13:13:38.576Z,8.70
2019-04-14T13:16:07.685Z,8.87
2019-04-14T13:18:36.803Z,9.30
2019-04-14T13:21:05.846Z,9.37
2019-04-14T13:23:34.615Z,9.90
2019-04-14T13:26:03.381Z,9.10
2019-04-14T13:28:32.442Z,10.43
2019-04-14T13:31:01.391Z,10.27
2019-04-14T13:33:30.179Z,12.13
2019-04-14T13:35:59.428Z,12.90
2019-04-14T13:38:28.533Z,9.67
2019-04-14T13:40:57.288Z,12.07
2019-04-14T13:43:26.151Z,11.50
2019-04-14T13:45:54.921Z,12.43
2019-04-14T13:48:23.983Z,12.83
2019-04-14T13:50:53.136Z,11.90
2019-04-14T13:53:22.282Z,11.83
2019-04-14T13:55:51.579Z,12.57
2019-04-14T13:58:20.754Z,11.80
2019-04-14T14:00:49.867Z,12.60
2019-04-14T14:03:19.062Z,12.10
2019-04-14T14:05:48.471Z,12.60
2019-04-14T14:08:17.239Z,13.40
2019-04-14T14:10:46.019Z,15.70
2019-04-14T14:13:29.575Z,13.53
2019-04-14T14:16:16.519Z,13.97
2019-04-14T14:19:02.795Z,15.37
2019-04-14T14:21:57.176Z,16.07
2019-04-14T14:24:45.729Z,15.23
2019-04-14T14:27:14.604Z,15.17
2019-04-14T14:29:44.438Z,18.77
2019-04-14T14:32:27.715Z,17.20
2019-04-14T14:34:56.836Z,17.03
2019-04-14T14:37:26.163Z,18.30
2019-04-14T14:39:55.699Z,18.77
2019-04-14T14:42:24.857Z,19.53
2019-04-14T14:45:00.303Z,18.77
2019-04-14T14:47:30.571Z,19.20
2019-04-14T14:50:22.347Z,18.60
2019-04-14T14:52:51.124Z,20.40
2019-04-14T14:55:20.237Z,21.10
2019-04-14T14:57:49.087Z,23.97
2019-04-14T15:00:24.815Z,21.90
2019-04-14T15:02:53.874Z,22.83
2019-04-14T15:05:22.715Z,22.80
2019-04-14T15:07:52.067Z,24.87
2019-04-14T15:10:21.152Z,25.63
2019-04-14T15:12:50.556Z,23.17
2019-04-14T15:15:19.645Z,27.60
2019-04-14T15:17:49.052Z,30.00
2019-04-14T15:20:17.899Z,25.37
2019-04-14T15:22:46.667Z,25.90
2019-04-14T15:25:15.519Z,24.27
2019-04-14T15:27:44.855Z,29.13
2019-04-14T15:30:18.479Z,32.97
2019-04-14T15:32:47.290Z,30.20
2019-04-14T15:35:16.478Z,31.03
2019-04-14T15:37:45.931Z,27.33
2019-04-14T15:40:15.159Z,26.93
2019-04-14T15:42:44.539Z,28.47
2019-04-14T15:45:14.163Z,27.83
2019-04-14T15:47:43.424Z,25.23
2019-04-14T15:50:12.340Z,26.07
2019-04-14T15:52:41.110Z,24.67
2019-04-14T15:55:11.395Z,27.33
2019-04-14T15:57:50.553Z,27.10
2019-04-14T16:00:40.799Z,26.57
2019-04-14T16:03:19.515Z,30.07
2019-04-14T16:06:08.165Z,27.00
2019-04-14T16:08:47.232Z,31.67
2019-04-14T16:11:36.723Z,28.90
2019-04-14T16:14:20.864Z,29.17
2019-04-14T16:17:09.926Z,28.70
2019-04-14T16:19:46.593Z,32.00
2019-04-14T16:22:15.376Z,30.60
2019-04-14T16:24:44.390Z,30.13
2019-04-14T16:27:26.126Z,31.37
2019-04-14T16:30:06.906Z,30.63
2019-04-14T16:32:56.624Z,31.53
2019-04-14T16:35:27.870Z,29.87
2019-04-14T16:37:56.951Z,31.27
2019-04-14T16:40:26.066Z,32.30
2019-04-14T16:42:55.158Z,29.90
2019-04-14T16:45:24.214Z,32.27
2019-04-14T16:47:52.988Z,31.23
2019-04-14T16:50:21.758Z,36.83
2019-04-14T16:53:04.934Z,33.07
2019-04-14T16:55:43.258Z,34.00
2019-04-14T16:58:17.518Z,30.97
2019-04-14T17:00:50.585Z,31.37
2019-04-14T17:03:19.356Z,33.57
2019-04-14T17:05:48.135Z,31.50
2019-04-14T17:08:16.940Z,30.07
2019-04-14T17:10:46.334Z,31.10
2019-04-14T17:13:15.177Z,28.97
2019-04-14T17:16:05.679Z,30.30
2019-04-14T17:18:58.169Z,29.27
2019-04-14T17:21:38.139Z,33.73
2019-04-14T17:24:16.785Z,33.63
2019-04-14T17:26:54.745Z,30.77
2019-04-14T17:29:42.966Z,32.43
2019-04-14T17:32:34.299Z,29.10
2019-04-14T17:35:17.935Z,28.10
2019-04-14T17:37:51.943Z,33.03
2019-04-14T17:40:33.379Z,31.70
2019-04-14T17:43:15.631Z,29.60
2019-04-14T17:45:58.753Z,34.53
2019-04-14T17:48:48.223Z,32.10
2019-04-14T17:51:25.071Z,35.03
2019-04-14T17:54:13.048Z,28.97
2019-04-14T17:56:47.155Z,31.30
2019-04-14T17:59:42.683Z,29.53
2019-04-14T18:02:27.535Z,31.50
2019-04-14T18:05:21.399Z,30.60
2019-04-14T18:07:57.447Z,30.83
2019-04-14T18:10:41.311Z,29.57
2019-04-14T18:13:16.247Z,32.27
2019-04-14T18:16:16.316Z,30.13
2019-04-14T18:19:03.203Z,29.70
2019-04-14T18:21:32.355Z,31.07
2019-04-14T18:24:01.730Z,28.77
2019-04-14T18:26:30.571Z,35.33
2019-04-14T18:29:17.383Z,28.50
2019-04-14T18:31:51.459Z,27.37
2019-04-14T18:34:45.473Z,27.40
2019-04-14T18:37:38.223Z,27.17
2019-04-14T18:40:13.759Z,25.87
2019-04-14T18:42:58.116Z,28.63
2019-04-14T18:45:31.099Z,29.33
2019-04-14T18:48:08.089Z,31.17
2019-04-14T18:50:56.229Z,28.33
2019-04-14T18:53:35.256Z,29.90
2019-04-14T18:56:11.911Z,28.97
2019-04-14T18:58:50.334Z,32.80
2019-04-14T19:01:22.190Z,30.17
2019-04-14T19:03:50.975Z,29.83
2019-04-14T19:06:20.232Z,27.67
2019-04-14T19:08:50.838Z,33.13
2019-04-14T19:11:48.408Z,28.93
2019-04-14T19:14:24.507Z,28.13
2019-04-14T19:16:57.852Z,31.57
2019-04-14T19:19:26.667Z,33.03
2019-04-14T19:21:55.439Z,32.13
2019-04-14T19:24:24.615Z,36.07
2019-04-14T19:26:53.398Z,29.00
2019-04-14T19:29:22.176Z,29.73
2019-04-14T19:31:51.051Z,35.30
2019-04-14T19:34:20.478Z,29.77
2019-04-14T19:36:49.824Z,32.23
2019-04-14T19:39:18.677Z,31.77
2019-04-14T19:41:47.623Z,31.13
2019-04-14T19:44:16.407Z,33.00
2019-04-14T19:46:45.425Z,32.20
2019-04-14T19:49:14.221Z,34.27
2019-04-14T19:51:43.439Z,31.77
2019-04-14T19:54:12.251Z,32.73
2019-04-14T19:56:41.075Z,33.70
2019-04-14T22:06:55.329Z,28.67
2019-04-14T22:09:31.159Z,29.20
2019-04-14T22:12:01.564Z,31.70
2019-04-14T22:14:30.376Z,27.23
2019-04-14T22:16:59.198Z,31.13
2019-04-14T22:19:28.122Z,30.43
2019-04-14T22:21:56.880Z,32.63
2019-04-14T22:24:25.651Z,28.27
2019-04-14T22:26:54.423Z,28.97
2019-04-14T22:29:23.194Z,29.53
2019-04-14T22:31:52.335Z,29.53
2019-04-14T22:34:21.192Z,28.33
2019-04-14T22:36:49.946Z,29.63
2019-04-14T22:39:19.022Z,31.57
2019-04-14T22:41:48.397Z,28.37
2019-04-14T22:44:17.475Z,27.17
2019-04-14T22:46:46.247Z,28.57
2019-04-14T22:49:14.998Z,29.27
2019-04-14T22:51:44.079Z,28.53
2019-04-14T22:54:13.166Z,27.40
2019-04-14T22:56:41.935Z,29.47
2019-04-14T22:59:11.068Z,28.30
2019-04-14T23:01:42.718Z,31.17
2019-04-14T23:04:34.503Z,34.57
2019-04-14T23:07:13.502Z,36.93
2019-04-14T23:09:49.430Z,32.87
2019-04-14T23:12:35.792Z,35.10
2019-04-14T23:15:19.635Z,37.10
2019-04-14T23:18:06.194Z,32.10
2019-04-14T23:20:52.895Z,30.57
2019-04-14T23:23:40.907Z,32.33
2019-04-14T23:26:09.850Z,33.00
2019-04-14T23:28:38.911Z,31.10
2019-04-14T23:31:08.311Z,32.23
2019-04-14T23:33:37.087Z,29.97
2019-04-14T23:36:06.091Z,31.57
2019-04-14T23:38:35.381Z,32.83
2019-04-14T23:41:04.330Z,29.70
2019-04-14T23:43:33.383Z,31.63
2019-04-14T23:46:02.299Z,36.00
2019-04-14T23:48:31.366Z,33.63
2019-04-14T23:51:00.775Z,30.20
2019-04-14T23:53:30.383Z,30.40
2019-04-14T23:55:59.224Z,31.13
2019-04-14T23:58:28.052Z,33.43
